Time;durP1;ratioP1;P1;durP2;ratioP2;P2;SDS_P1;SDS_P2;PMS_P1;PMS_P2;Temp;Humidity;BMP_temperature;BMP_pressure;BME280_temperature;BME280_humidity;BME280_pressure;Samples;Min_cycle;Max_cycle;Signal;HPM_P1;HPM_P2
2022/05/16 00:00:50;;;;;;;1.58;1.48;;;;;;;26.20;53.62;100248.34;4996565;28;20089;-58
2022/05/16 00:03:34;;;;;;;;;;;;;;;26.17;53.58;100249.69;4996408;28;20057;-58
2022/05/16 00:06:18;;;;;;;1.40;1.30;;;;;;;26.19;53.62;100249.41;4996389;28;20289;-55
2022/05/16 00:09:03;;;;;;;1.67;1.58;;;;;;;26.20;53.55;100248.34;4982098;28;20053;-57
2022/05/16 00:11:47;;;;;;;1.67;1.58;;;;;;;26.20;53.65;100251.06;4981598;28;20048;-57
2022/05/16 00:14:31;;;;;;;;;;;;;;;26.14;53.82;100250.16;4996472;28;20100;-57
2022/05/16 00:17:16;;;;;;;1.70;1.60;;;;;;;26.15;53.93;100245.53;4996071;28;20296;-56
2022/05/16 00:20:00;;;;;;;1.85;1.75;;;;;;;26.17;53.94;100257.03;4996265;28;20092;-58
2022/05/16 00:22:44;;;;;;;1.75;1.50;;;;;;;26.17;53.92;100254.31;4996140;28;20505;-57
2022/05/16 00:25:28;;;;;;;;;;;;;;;26.11;53.84;100252.53;4996219;28;20520;-57
2022/05/16 00:28:12;;;;;;;1.50;1.40;;;;;;;26.12;53.97;100257.75;4981088;28;19956;-58
2022/05/16 00:30:56;;;;;;;1.40;1.30;;;;;;;26.14;53.89;100252.06;4996055;28;20053;-58
2022/05/16 00:33:41;;;;;;;;;;;;;;;26.09;53.96;100268.34;4996269;28;20073;-56
2022/05/16 00:36:25;;;;;;;1.60;1.50;;;;;;;26.12;53.98;100256.94;4981383;28;19936;-56
2022/05/16 00:39:09;;;;;;;;;;;;;;;26.08;53.97;100263.97;4996277;28;20473;-56
2022/05/16 00:41:53;;;;;;;1.40;1.30;;;;;;;26.10;54.11;100265.38;4995831;28;19944;-56
2022/05/16 00:44:38;;;;;;;;;;;;;;;26.07;54.16;100267.78;4981559;28;20053;-58
2022/05/16 00:47:21;;;;;;;1.50;1.40;;;;;;;26.09;54.08;100265.63;4995445;28;19959;-58
2022/05/16 00:50:05;;;;;;;;;;;;;;;26.05;54.11;100261.72;4996060;28;20054;-57
2022/05/16 00:52:50;;;;;;;1.33;1.23;;;;;;;26.09;54.11;100260.16;4995589;28;19969;-56
2022/05/16 00:55:37;;;;;;;1.65;1.48;;;;;;;26.09;54.07;100262.88;4995552;28;20053;-58
2022/05/16 00:58:21;;;;;;;1.67;1.58;;;;;;;26.08;54.17;100258.50;4995479;28;20069;-57
2022/05/16 01:04:47;;;;;;;1.70;1.60;;;;;;;26.08;54.22;100258.50;4995161;28;20057;-58
2022/05/16 01:07:12;;;;;;;1.50;1.40;;;;;;;26.07;54.17;100260.41;4994952;28;20049;-57
2022/05/16 01:09:57;;;;;;;1.40;1.30;;;;;;;26.06;54.10;100253.25;4980386;28;20457;-56
2022/05/16 01:12:44;;;;;;;1.60;1.50;;;;;;;26.08;54.19;100250.31;4995142;28;20100;-58
2022/05/16 01:15:41;;;;;;;1.52;1.42;;;;;;;26.07;54.30;100254.09;4994468;28;20049;-56
2022/05/16 01:18:26;;;;;;;1.30;1.20;;;;;;;26.05;54.13;100257.06;4994920;28;20061;-55
2022/05/16 01:21:16;;;;;;;1.45;1.35;;;;;;;26.06;54.09;100255.19;4980539;28;20045;-56
2022/05/16 01:24:10;;;;;;;1.60;1.50;;;;;;;26.05;54.28;100259.00;4994949;28;20414;-55
2022/05/16 01:26:53;;;;;;;1.60;1.50;;;;;;;26.03;54.29;100252.94;4980082;28;20108;-56
2022/05/16 01:29:37;;;;;;;;;;;;;;;25.97;54.25;100243.84;4995338;28;20049;-58
2022/05/16 01:32:21;;;;;;;1.50;1.40;;;;;;;25.99;54.26;100247.13;4995675;28;19920;-57
2022/05/16 01:35:06;;;;;;;;;;;;;;;25.96;54.41;100246.78;4995086;28;20096;-56
2022/05/16 01:40:59;;;;;;;1.60;1.40;;;;;;;25.98;54.25;100234.56;4994718;28;19985;-58
2022/05/16 01:43:56;;;;;;;1.85;1.50;;;;;;;25.99;54.44;100221.72;4994301;28;20053;-58
2022/05/16 01:46:40;;;;;;;2.58;1.40;;;;;;;25.97;54.61;100221.13;4994639;28;20161;-58
2022/05/16 01:49:24;;;;;;;1.60;1.50;;;;;;;25.97;54.35;100227.44;4994585;28;20050;-58
2022/05/16 01:52:08;;;;;;;;;;;;;;;25.92;54.39;100229.25;4994742;28;20049;-57
2022/05/16 01:54:52;;;;;;;1.58;1.48;;;;;;;25.94;54.55;100229.81;4994256;28;19964;-55
2022/05/16 01:57:36;;;;;;;1.50;1.40;;;;;;;25.94;54.38;100238.84;4979492;28;20073;-58
2022/05/16 02:00:21;;;;;;;1.35;1.25;;;;;;;25.94;54.59;100238.03;4994410;28;20073;-58
2022/05/16 02:03:05;;;;;;;1.20;1.10;;;;;;;25.94;54.57;100248.94;4979595;28;20049;-57
2022/05/16 02:05:49;;;;;;;1.40;1.30;;;;;;;25.94;54.61;100254.41;4993984;28;20053;-59
2022/05/16 02:08:34;;;;;;;1.60;1.50;;;;;;;25.93;54.58;100252.75;4994279;28;20053;-58
2022/05/16 02:11:18;;;;;;;1.55;1.45;;;;;;;25.92;54.62;100245.63;4994256;28;20053;-56
2022/05/16 02:14:01;;;;;;;;;;;;;;;25.85;54.66;100245.72;4994703;28;20049;-57
2022/05/16 02:16:46;;;;;;;2.13;1.60;;;;;;;25.88;54.68;100256.22;4994002;28;19921;-54
2022/05/16 02:19:30;;;;;;;1.50;1.40;;;;;;;25.90;54.68;100253.22;4994043;28;20469;-58
2022/05/16 02:25:17;;;;;;;1.40;1.30;;;;;;;25.89;54.35;100251.56;4994096;28;20106;-58
2022/05/16 02:28:01;;;;;;;1.48;1.38;;;;;;;25.87;54.58;100251.84;4993628;28;20572;-56
2022/05/16 02:30:46;;;;;;;1.50;1.40;;;;;;;25.86;54.52;100244.72;4993820;28;20049;-57
2022/05/16 02:33:30;;;;;;;1.25;1.17;;;;;;;25.86;54.59;100235.63;4978911;28;20517;-56
2022/05/16 02:36:14;;;;;;;1.77;1.67;;;;;;;25.84;54.48;100233.16;4993756;28;20597;-57
2022/05/16 02:38:59;;;;;;;1.60;1.40;;;;;;;25.83;54.69;100236.94;4979071;28;20169;-54
2022/05/16 02:41:42;;;;;;;;;;;;;;;25.79;54.63;100234.94;4994314;28;20049;-55
2022/05/16 02:44:26;;;;;;;1.40;1.30;;;;;;;25.80;54.48;100237.44;4993950;28;19925;-56
2022/05/16 02:47:11;;;;;;;;;;;;;;;25.77;54.63;100242.56;4979653;28;20057;-57
2022/05/16 02:49:55;;;;;;;1.45;1.35;;;;;;;25.79;54.62;100243.97;4993878;28;19964;-57
2022/05/16 02:52:39;;;;;;;;;;;;;;;25.76;54.51;100251.81;4994022;28;20057;-57
2022/05/16 02:55:23;;;;;;;1.73;1.38;;;;;;;25.78;54.71;100264.19;4993881;28;19975;-60
2022/05/16 02:58:07;;;;;;;;;;;;;;;25.74;54.60;100264.91;4994150;28;20053;-54
2022/05/16 03:00:52;;;;;;;1.30;1.20;;;;;;;25.76;54.68;100260.88;4993839;28;19921;-58
2022/05/16 03:03:36;;;;;;;1.30;1.20;;;;;;;25.77;54.57;100259.78;4993739;28;20137;-56
2022/05/16 03:06:20;;;;;;;1.35;1.25;;;;;;;25.77;54.75;100248.88;4978853;28;20053;-60
2022/05/16 03:09:04;;;;;;;1.30;1.20;;;;;;;25.77;54.75;100261.69;4993479;28;20104;-57
2022/05/16 03:11:49;;;;;;;1.48;1.38;;;;;;;25.77;54.62;100256.22;4993380;28;20081;-57
2022/05/16 03:14:33;;;;;;;1.63;1.52;;;;;;;25.75;54.59;100261.09;4978669;28;20045;-56
2022/05/16 03:17:18;;;;;;;1.50;1.40;;;;;;;25.75;54.61;100258.38;4993699;28;20101;-56
2022/05/16 03:20:02;;;;;;;1.42;1.33;;;;;;;25.74;54.76;100260.25;4993383;28;20057;-59
2022/05/16 03:22:46;;;;;;;1.50;1.40;;;;;;;25.73;54.67;100249.59;4993571;28;20101;-59
2022/05/16 03:25:30;;;;;;;;;;;;;;;25.68;54.74;100254.94;4993925;28;20499;-56
2022/05/16 03:28:14;;;;;;;1.60;1.50;;;;;;;25.69;54.90;100257.44;4993847;28;20289;-58
2022/05/16 03:30:59;;;;;;;;;;;;;;;25.66;54.77;100255.19;4993690;28;20173;-57
2022/05/16 03:33:43;;;;;;;1.50;1.40;;;;;;;25.70;54.89;100258.25;4993784;28;20453;-55
2022/05/16 03:36:27;;;;;;;1.35;1.25;;;;;;;25.70;54.81;100258.25;4993239;28;20130;-60
2022/05/16 03:42:14;;;;;;;1.33;1.23;;;;;;;25.68;54.97;100266.69;4996870;28;20072;-58
2022/05/16 03:44:58;;;;;;;1.60;1.50;;;;;;;25.68;54.73;100276.78;4996574;28;20049;-58
2022/05/16 03:47:42;;;;;;;1.48;1.38;;;;;;;25.68;54.89;100271.31;4996560;28;20129;-59
2022/05/16 03:50:26;;;;;;;;;;;;;;;25.62;54.91;100266.84;4997457;28;20418;-57
2022/05/16 03:53:10;;;;;;;1.45;1.35;;;;;;;25.64;54.75;100267.41;4996698;28;20469;-59
2022/05/16 03:55:54;;;;;;;1.50;1.33;;;;;;;25.66;55.19;100273.47;4996393;28;20130;-56
2022/05/16 03:58:38;;;;;;;;;;;;;;;25.61;54.81;100276.09;4997074;28;20406;-56
2022/05/16 04:01:23;;;;;;;1.52;1.40;;;;;;;25.63;54.99;100279.41;4996560;28;19967;-60
2022/05/16 04:04:07;;;;;;;1.40;1.30;;;;;;;25.63;55.03;100273.94;4996447;28;20187;-57
2022/05/16 04:06:51;;;;;;;;;;;;;;;25.59;54.98;100270.03;4996679;28;20086;-60
2022/05/16 04:09:35;;;;;;;1.58;1.38;;;;;;;25.61;55.04;100270.63;4996230;28;20389;-58
2022/05/16 04:12:19;;;;;;;;;;;;;;;25.57;54.94;100263.97;4996491;28;20050;-58
2022/05/16 04:15:04;;;;;;;1.70;1.40;;;;;;;25.60;55.04;100274.41;4996362;28;19920;-56
2022/05/16 04:17:49;;;;;;;1.70;1.60;;;;;;;25.62;55.11;100283.22;4996308;28;20042;-59
2022/05/16 04:20:33;;;;;;;1.50;1.40;;;;;;;25.62;55.02;100283.22;4996266;28;20049;-59
2022/05/16 04:23:16;;;;;;;;;;;;;;;25.56;55.08;100279.56;4996535;28;20151;-59
2022/05/16 04:26:00;;;;;;;1.40;1.30;;;;;;;25.59;55.12;100284.53;4996147;28;20286;-59
2022/05/16 04:28:44;;;;;;;;;;;;;;;25.56;55.01;100281.44;4996242;28;20057;-57
2022/05/16 04:31:28;;;;;;;1.40;1.30;;;;;;;25.58;55.19;100288.31;4995641;28;19928;-60
2022/05/16 04:34:12;;;;;;;1.58;1.48;;;;;;;25.59;55.06;100289.13;4996025;28;20097;-59
2022/05/16 04:36:55;;;;;;;;;;;;;;;25.55;55.08;100287.97;4996392;28;20053;-59
2022/05/16 04:39:39;;;;;;;2.05;1.48;;;;;;;25.57;55.03;100280.38;4995682;28;20298;-58
2022/05/16 04:42:42;;;;;;;1.55;1.35;;;;;;;25.58;55.13;100287.47;4995767;28;20100;-60
2022/05/16 04:45:29;;;;;;;1.48;1.38;;;;;;;25.58;55.15;100276.56;4995800;28;20049;-57
2022/05/16 04:48:13;;;;;;;1.40;1.30;;;;;;;25.57;55.19;100283.94;4995441;28;20077;-57
2022/05/16 04:50:57;;;;;;;;;;;;;;;25.53;55.26;100279.19;4995830;28;20049;-58
2022/05/16 04:53:41;;;;;;;1.50;1.40;;;;;;;25.55;55.12;100288.81;4995659;28;19967;-58
2022/05/16 04:56:24;;;;;;;;;;;;;;;25.53;54.95;100287.38;4995889;28;20053;-57
2022/05/16 04:59:10;;;;;;;1.42;1.33;;;;;;;25.55;55.05;100287.97;4980726;28;20004;-60
2022/05/16 05:01:55;;;;;;;2.15;1.45;;;;;;;25.56;55.21;100286.91;4995380;28;20145;-59
2022/05/16 05:04:39;;;;;;;1.45;1.35;;;;;;;25.55;55.07;100293.44;4995089;28;20096;-60
2022/05/16 05:07:23;;;;;;;1.40;1.30;;;;;;;25.56;55.05;100289.63;4995355;28;20136;-58
2022/05/16 05:16:15;;;;;;;2.55;1.42;;;;;;;25.56;55.10;100308.75;4995182;28;20113;-55
2022/05/16 05:18:59;;;;;;;1.88;1.38;;;;;;;25.56;55.06;100300.56;4980503;28;20084;-59
2022/05/16 05:21:43;;;;;;;;;;;;;;;25.53;55.04;100306.50;4995434;28;20077;-56
2022/05/16 05:24:27;;;;;;;1.52;1.42;;;;;;;25.56;55.13;100314.19;4980037;28;19968;-60
2022/05/16 05:27:11;;;;;;;1.50;1.40;;;;;;;25.58;54.86;100318.34;4994746;28;20069;-57
2022/05/16 05:29:55;;;;;;;;;;;;;;;25.53;55.07;100323.69;4995560;28;20130;-60
2022/05/16 05:32:39;;;;;;;1.38;1.27;;;;;;;25.56;55.02;100312.31;4994448;28;19968;-61
2022/05/16 05:35:24;;;;;;;1.35;1.25;;;;;;;25.59;54.71;100322.75;4994844;28;20169;-58
2022/05/16 05:38:09;;;;;;;1.60;1.50;;;;;;;25.58;54.90;100329.28;4994530;28;20053;-58
2022/05/16 05:40:53;;;;;;;1.42;1.33;;;;;;;25.60;54.69;100329.00;4994566;28;20049;-59
2022/05/16 05:43:37;;;;;;;;;;;;;;;25.55;54.86;100337.97;4995157;28;20093;-59
2022/05/16 05:46:20;;;;;;;1.73;1.63;;;;;;;25.56;54.83;100336.03;4979708;28;19928;-59
2022/05/16 05:49:04;;;;;;;;;;;;;;;25.53;54.67;100337.34;4994796;28;20133;-60
2022/05/16 05:51:48;;;;;;;1.80;1.55;;;;;;;25.57;54.87;100340.44;4994475;28;19940;-59
2022/05/16 05:54:32;;;;;;;;;;;;;;;25.54;54.69;100340.91;4995023;28;20122;-59
2022/05/16 05:57:16;;;;;;;1.60;1.50;;;;;;;25.56;54.79;100350.53;4979495;28;20293;-59
2022/05/16 06:00:00;;;;;;;;;;;;;;;25.53;54.65;100347.44;4980129;28;20130;-59
2022/05/16 06:02:44;;;;;;;2.22;1.52;;;;;;;25.55;54.77;100350.75;4979019;28;19921;-59
2022/05/16 06:05:28;;;;;;;1.65;1.55;;;;;;;25.56;54.72;100357.88;4994055;28;20101;-59
2022/05/16 06:08:12;;;;;;;1.50;1.40;;;;;;;25.55;54.65;100356.22;4979357;28;20477;-59
2022/05/16 06:10:55;;;;;;;;;;;;;;;25.50;54.72;100361.56;4994550;28;20181;-59
2022/05/16 06:13:39;;;;;;;2.10;1.50;;;;;;;25.54;54.75;100369.03;4979603;28;19920;-55
2022/05/16 06:16:26;;;;;;;1.38;1.27;;;;;;;25.57;54.72;100367.72;4994048;28;20130;-60
2022/05/16 06:19:10;;;;;;;1.50;1.40;;;;;;;25.57;54.58;100378.66;4979258;28;20053;-59
2022/05/16 06:21:54;;;;;;;;;;;;;;;25.55;54.52;100375.34;4994420;28;20502;-56
2022/05/16 06:27:41;;;;;;;1.77;1.58;;;;;;;25.61;54.48;100377.13;4993862;28;20061;-58
2022/05/16 06:30:25;;;;;;;;;;;;;;;25.59;54.45;100384.69;4994545;28;20053;-59
2022/05/16 06:33:09;;;;;;;1.52;1.38;;;;;;;25.62;54.53;100384.25;4978935;28;19968;-60
2022/05/16 06:35:53;;;;;;;1.50;1.40;;;;;;;25.63;54.30;100388.63;4979389;28;20089;-58
2022/05/16 06:38:37;;;;;;;;;;;;;;;25.58;54.32;100388.50;4994715;28;20506;-54
2022/05/16 06:41:22;;;;;;;1.73;1.63;;;;;;;25.60;54.39;100397.28;4978905;28;20048;-57
2022/05/16 06:44:06;;;;;;;2.28;1.70;;;;;;;25.62;54.32;100404.16;4993906;28;20050;-56
2022/05/16 06:46:49;;;;;;;;;;;;;;;25.59;54.16;100398.34;4979940;28;20061;-55
2022/05/16 06:49:33;;;;;;;1.60;1.50;;;;;;;25.65;54.23;100416.53;4993763;28;19941;-60
2022/05/16 06:52:18;;;;;;;2.83;1.50;;;;;;;25.66;54.27;100408.09;4993859;28;20462;-56
2022/05/16 06:55:01;;;;;;;;;;;;;;;25.63;54.16;100413.19;4979318;28;20045;-59
2022/05/16 06:57:45;;;;;;;1.60;1.50;;;;;;;25.66;54.19;100418.19;4993632;28;19922;-55
2022/05/16 07:00:29;;;;;;;;;;;;;;;25.62;54.29;100422.47;4993980;28;20077;-57
2022/05/16 07:03:13;;;;;;;1.60;1.50;;;;;;;25.65;54.18;100424.72;4993513;28;20332;-55
2022/05/16 07:05:57;;;;;;;1.80;1.60;;;;;;;25.66;54.29;100423.63;4993730;28;20053;-55
2022/05/16 07:08:41;;;;;;;;;;;;;;;25.63;54.23;100422.22;4993928;28;20421;-59
2022/05/16 07:11:25;;;;;;;2.15;1.40;;;;;;;25.68;54.28;100425.06;4993676;28;19920;-56
2022/05/16 07:14:09;;;;;;;;;;;;;;;25.67;54.20;100422.56;4995990;28;20044;-58
2022/05/16 07:16:53;;;;;;;2.67;1.38;;;;;;;25.73;54.07;100421.63;4997160;28;19920;-59
2022/05/16 07:19:36;;;;;;;;;;;;;;;25.71;54.02;100419.13;4997808;28;20549;-58
2022/05/16 07:22:25;;;;;;;1.98;1.60;;;;;;;25.75;53.97;100424.94;4997033;28;19968;-58
2022/05/16 07:25:09;;;;;;;1.60;1.50;;;;;;;25.77;53.78;100428.25;4997055;28;20052;-59
2022/05/16 07:27:57;;;;;;;1.67;1.58;;;;;;;25.78;54.04;100429.91;4996984;28;20053;-57
2022/05/16 07:30:41;;;;;;;1.90;1.80;;;;;;;25.77;53.98;100440.03;4997422;28;20064;-58
2022/05/16 07:33:25;;;;;;;1.55;1.45;;;;;;;25.78;54.03;100435.38;4997933;28;20556;-56
2022/05/16 07:36:08;;;;;;;;;;;;;;;25.73;54.23;100440.75;4997231;28;20049;-51
2022/05/16 07:38:52;;;;;;;1.58;1.48;;;;;;;25.76;54.09;100437.53;4997031;28;19980;-54
2022/05/16 07:41:38;;;;;;;3.63;1.65;;;;;;;25.76;54.19;100443.00;4997123;28;20061;-55
2022/05/16 07:44:22;;;;;;;2.08;1.80;;;;;;;25.77;54.34;100448.22;4982069;28;20137;-57
2022/05/16 07:47:07;;;;;;;;;;;;;;;25.72;54.26;100447.28;4997353;28;20056;-53
2022/05/16 07:49:51;;;;;;;2.75;1.40;;;;;;;25.75;54.41;100453.06;4996566;28;19921;-51
2022/05/16 07:52:35;;;;;;;;;;;;;;;25.73;54.29;100460.69;4996876;28;20509;-49
2022/05/16 07:55:21;;;;;;;1.63;1.50;;;;;;;25.76;54.32;100456.66;4982037;28;19968;-55
2022/05/16 07:58:06;;;;;;;1.60;1.50;;;;;;;25.78;54.25;100451.78;4996434;28;20057;-51
2022/05/16 08:00:50;;;;;;;1.90;1.52;;;;;;;25.76;54.38;100457.50;4996522;28;20112;-54
2022/05/16 08:03:34;;;;;;;1.70;1.60;;;;;;;25.75;54.30;100457.72;4996302;28;20056;-55
2022/05/16 08:06:18;;;;;;;1.60;1.50;;;;;;;25.74;54.44;100458.78;4996571;28;20411;-50
2022/05/16 08:12:06;;;;;;;1.77;1.50;;;;;;;25.72;54.50;100475.41;4996513;28;19989;-53
2022/05/16 08:14:49;;;;;;;3.10;1.60;;;;;;;25.73;54.59;100482.53;4996352;28;20052;-50
2022/05/16 08:17:33;;;;;;;;;;;;;;;25.70;54.57;100476.69;4996596;28;20076;-56
2022/05/16 08:20:17;;;;;;;1.73;1.63;;;;;;;25.73;54.35;100477.06;4996522;28;20009;-54
2022/05/16 08:23:01;;;;;;;1.55;1.45;;;;;;;25.76;54.29;100481.22;4981157;28;20502;-53
2022/05/16 08:25:45;;;;;;;1.90;1.50;;;;;;;25.78;54.21;100484.53;4980825;28;20049;-52
2022/05/16 08:28:33;;;;;;;;;;;;;;;25.75;54.42;100479.56;4996239;28;20586;-54
2022/05/16 08:31:17;;;;;;;1.70;1.60;;;;;;;25.78;54.29;100490.84;4995896;28;20012;-54
2022/05/16 08:34:02;;;;;;;1.70;1.60;;;;;;;25.81;54.10;100473.13;4996031;28;20044;-53
2022/05/16 08:39:52;;;;;;;1.95;1.83;;;;;;;25.82;54.29;100485.75;4995914;28;20105;-53
2022/05/16 08:42:47;;;;;;;1.70;1.60;;;;;;;25.85;54.35;100493.47;4995686;28;20080;-52
2022/05/16 08:45:35;;;;;;;4.13;2.00;;;;;;;25.86;54.30;100497.84;4995548;28;20045;-53
2022/05/16 08:48:34;;;;;;;2.45;2.03;;;;;;;25.86;54.31;100497.84;4981377;28;20149;-51
2022/05/16 08:51:30;;;;;;;2.10;1.90;;;;;;;25.87;54.28;100499.53;4980833;28;20057;-57
2022/05/16 08:54:14;;;;;;;2.75;1.73;;;;;;;25.88;54.31;100493.00;4980918;28;20469;-52
2022/05/16 08:57:01;;;;;;;3.20;2.15;;;;;;;25.89;54.28;100491.94;4995344;28;20089;-56
2022/05/16 08:59:55;;;;;;;2.38;2.13;;;;;;;25.91;54.21;100511.66;4980579;28;20069;-53
2022/05/16 09:02:42;;;;;;;2.55;1.88;;;;;;;25.91;54.46;100508.91;4980575;28;20096;-54
2022/05/16 09:05:33;;;;;;;2.25;1.80;;;;;;;25.93;54.25;100504.06;4980634;28;20053;-54
2022/05/16 09:08:35;;;;;;;2.08;1.70;;;;;;;25.94;54.35;100513.94;4995255;28;20049;-54
2022/05/16 09:11:22;;;;;;;2.53;2.05;;;;;;;25.96;54.30;100517.25;4994919;28;20073;-53
2022/05/16 09:14:11;;;;;;;1.83;1.73;;;;;;;25.97;54.45;100521.63;4994913;28;20502;-53
2022/05/16 09:17:19;;;;;;;2.33;1.83;;;;;;;25.99;54.38;100503.09;4980395;28;20142;-56
2022/05/16 09:20:28;;;;;;;2.17;1.80;;;;;;;26.00;54.24;100510.22;4980455;28;20097;-55
2022/05/16 09:23:23;;;;;;;2.35;1.88;;;;;;;26.01;54.20;100525.53;4994978;28;20061;-55
2022/05/16 09:26:11;;;;;;;3.17;1.70;;;;;;;26.04;54.06;100533.28;4994722;28;20044;-55
2022/05/16 09:29:15;;;;;;;2.22;2.03;;;;;;;26.04;53.86;100527.81;4994998;28;20049;-55
2022/05/16 09:32:09;;;;;;;2.13;1.60;;;;;;;26.06;53.70;100520.22;4979947;28;20561;-50
2022/05/16 09:34:52;;;;;;;3.40;2.13;;;;;;;26.06;53.74;100526.50;4979910;28;20138;-50
2022/05/16 09:37:36;;;;;;;;;;;;;;;26.04;53.72;100538.75;4979694;28;20064;-50
2022/05/16 09:40:23;;;;;;;2.58;1.80;;;;;;;26.08;53.75;100539.94;4994807;28;20015;-53
2022/05/16 09:43:20;;;;;;;1.85;1.63;;;;;;;26.10;53.48;100535.91;4994447;28;20088;-55
2022/05/16 09:46:13;;;;;;;3.00;2.00;;;;;;;26.11;53.44;100555.84;4979751;28;20077;-53
2022/05/16 09:49:11;;;;;;;3.85;1.75;;;;;;;26.11;53.42;100556.69;4994438;28;20568;-54
2022/05/16 09:51:58;;;;;;;2.65;1.90;;;;;;;26.12;53.35;100574.75;4994241;28;20418;-51
2022/05/16 09:54:42;;;;;;;2.30;1.85;;;;;;;26.11;53.56;100566.75;4979851;28;20044;-52
2022/05/16 09:57:25;;;;;;;;;;;;;;;26.08;53.35;100573.56;4994683;28;20053;-50
2022/05/16 10:00:30;;;;;;;5.57;1.95;;;;;;;26.13;53.43;100578.31;4979787;28;19920;-52
2022/05/16 10:03:29;;;;;;;;;;;;;;;26.10;53.29;100589.69;4979908;28;20101;-54
2022/05/16 10:06:27;;;;;;;2.85;1.70;;;;;;;26.15;53.31;100617.16;4994337;28;19925;-55
2022/05/16 10:09:16;;;;;;;4.32;1.70;;;;;;;26.18;53.33;100608.47;4994099;28;20065;-54
2022/05/16 10:12:00;;;;;;;1.92;1.70;;;;;;;26.19;53.07;100621.06;4993911;28;20065;-51
2022/05/16 10:14:43;;;;;;;;;;;;;;;26.18;53.28;100641.28;4994395;28;20049;-53
2022/05/16 10:17:31;;;;;;;1.95;1.75;;;;;;;26.20;53.02;100642.72;4994267;28;19959;-53
2022/05/16 10:20:22;;;;;;;3.13;1.60;;;;;;;26.21;53.04;100654.47;4979585;28;20414;-55
2022/05/16 10:23:10;;;;;;;3.72;1.90;;;;;;;26.22;53.11;100650.66;4979134;28;20048;-51
2022/05/16 10:25:57;;;;;;;3.88;1.83;;;;;;;26.20;53.10;100656.38;4979093;28;20120;-54
2022/05/16 10:28:46;;;;;;;3.63;2.10;;;;;;;26.19;53.19;100662.06;4979198;28;20092;-50
2022/05/16 10:34:58;;;;;;;2.00;1.80;;;;;;;26.09;53.34;100678.22;4982048;28;20046;-53
2022/05/16 10:37:44;;;;;;;2.45;1.70;;;;;;;26.05;53.45;100685.22;4979290;28;20614;-51
2022/05/16 10:40:33;;;;;;;3.35;1.73;;;;;;;26.02;53.57;100693.91;4979320;28;20172;-54
2022/05/16 10:43:54;;;;;;;2.67;1.50;;;;;;;25.97;53.99;100699.22;4978984;28;20477;-54
2022/05/16 10:46:42;;;;;;;3.30;1.60;;;;;;;25.94;54.54;100716.09;4993711;28;20541;-53
2022/05/16 10:49:28;;;;;;;5.55;1.77;;;;;;;25.90;54.88;100717.59;4996686;28;20497;-53
2022/05/16 10:52:42;;;;;;;2.83;1.73;;;;;;;25.88;55.04;100725.19;4983100;28;20177;-55
2022/05/16 10:55:29;;;;;;;2.53;1.80;;;;;;;25.83;55.37;100736.78;4983167;28;20045;-52
2022/05/16 10:58:25;;;;;;;2.40;1.30;;;;;;;25.82;55.28;100726.09;4982745;28;20100;-53
2022/05/16 11:01:18;;;;;;;2.90;1.80;;;;;;;25.80;55.28;100718.13;4997734;28;20046;-54
2022/05/16 11:04:15;;;;;;;2.80;1.75;;;;;;;25.78;55.44;100730.34;4997600;28;20065;-53
2022/05/16 11:07:08;;;;;;;4.05;2.10;;;;;;;25.76;55.38;100716.09;4982961;28;20150;-52
2022/05/16 11:09:58;;;;;;;2.80;1.75;;;;;;;25.75;55.42;100720.72;4997643;28;20068;-53
2022/05/16 11:13:20;;;;;;;3.65;2.10;;;;;;;25.72;55.60;100715.72;4997705;28;20137;-54
2022/05/16 11:16:22;;;;;;;3.63;1.63;;;;;;;25.71;55.52;100715.97;4997175;28;20045;-53
2022/05/16 11:19:42;;;;;;;4.75;1.95;;;;;;;25.70;55.65;100708.81;4982643;28;20125;-55
2022/05/16 11:22:30;;;;;;;4.63;2.03;;;;;;;25.68;55.73;100711.81;4982455;28;20111;-55
2022/05/16 11:25:33;;;;;;;3.40;1.60;;;;;;;25.72;55.59;100709.44;4996930;28;20510;-51
2022/05/16 11:28:33;;;;;;;2.47;1.60;;;;;;;25.73;55.58;100716.56;4982340;28;20433;-52
2022/05/16 11:31:19;;;;;;;2.63;1.77;;;;;;;25.78;55.42;100720.28;4996968;28;20560;-53
2022/05/16 11:34:09;;;;;;;1.85;1.60;;;;;;;25.83;55.45;100711.38;4982418;28;20052;-53
2022/05/16 11:37:02;;;;;;;1.92;1.50;;;;;;;25.86;55.53;100710.91;4982123;28;20042;-56
2022/05/16 11:40:05;;;;;;;1.90;1.45;;;;;;;25.87;55.43;100707.13;4982056;28;20085;-53
2022/05/16 11:42:52;;;;;;;2.10;1.55;;;;;;;25.86;55.61;100710.91;4997224;28;20049;-53
2022/05/16 11:45:39;;;;;;;2.60;1.60;;;;;;;25.88;55.56;100708.81;4996613;28;20101;-55
2022/05/16 11:48:28;;;;;;;3.28;1.65;;;;;;;25.91;55.47;100717.38;4982230;28;20124;-52
2022/05/16 11:51:21;;;;;;;1.80;1.42;;;;;;;25.92;55.61;100710.03;4996783;28;20418;-54
2022/05/16 11:54:05;;;;;;;2.60;1.63;;;;;;;25.92;55.63;100704.56;4996518;28;20108;-53
2022/05/16 12:03:19;;;;;;;1.65;1.52;;;;;;;25.96;55.80;100684.75;4996291;28;20045;-54
2022/05/16 12:06:32;;;;;;;1.88;1.30;;;;;;;25.99;55.57;100677.94;4996239;28;20465;-50
2022/05/16 12:09:16;;;;;;;1.88;1.52;;;;;;;26.02;55.42;100682.97;4987348;28;20096;-54
2022/05/16 12:12:00;;;;;;;;;;;;;;;26.06;55.17;100676.78;4996844;28;20089;-57
2022/05/16 12:15:11;;;;;;;4.28;1.88;;;;;;;26.20;55.04;100655.53;4981680;28;20290;-55
2022/05/16 12:17:57;;;;;;;1.77;1.33;;;;;;;26.29;54.37;100659.59;4996280;28;20172;-56
2022/05/16 12:20:50;;;;;;;2.03;1.70;;;;;;;26.33;54.27;100664.34;4996288;28;20104;-54
2022/05/16 12:23:49;;;;;;;2.15;1.30;;;;;;;26.34;54.31;100663.28;4995950;28;20418;-55
2022/05/16 12:26:57;;;;;;;2.75;1.55;;;;;;;26.33;54.15;100674.47;4995889;28;20402;-50
2022/05/16 12:29:51;;;;;;;1.70;1.60;;;;;;;26.31;54.23;100666.50;4993766;28;20077;-50
2022/05/16 12:32:34;;;;;;;1.88;1.55;;;;;;;26.30;54.39;100669.44;4980987;28;20053;-56
2022/05/16 12:35:44;;;;;;;;;;;;;;;26.27;54.59;100668.03;4996198;28;20422;-52
2022/05/16 12:38:29;;;;;;;3.78;1.52;;;;;;;26.31;54.71;100669.22;4995711;28;19920;-52
2022/05/16 12:41:47;;;;;;;2.00;1.55;;;;;;;26.34;54.21;100667.94;4995854;28;20497;-52
2022/05/16 12:44:38;;;;;;;2.15;1.52;;;;;;;26.40;54.27;100653.28;4981402;28;20525;-50
2022/05/16 12:47:51;;;;;;;2.35;1.75;;;;;;;26.46;53.99;100653.16;4981068;28;20048;-53
2022/05/16 12:50:54;;;;;;;1.80;1.42;;;;;;;26.55;53.57;100645.50;4980989;28;20053;-50
2022/05/16 12:54:15;;;;;;;1.98;1.55;;;;;;;26.64;53.37;100646.81;4995446;28;20573;-54
2022/05/16 12:57:18;;;;;;;2.03;1.67;;;;;;;26.71;53.38;100642.00;4980861;28;20064;-54
2022/05/16 13:00:13;;;;;;;2.28;1.60;;;;;;;26.77;53.04;100641.06;4980742;28;20121;-55
2022/05/16 13:03:18;;;;;;;1.65;1.55;;;;;;;26.83;52.19;100642.81;4980503;28;20088;-53
2022/05/16 13:06:03;;;;;;;;;;;;;;;26.82;52.31;100635.69;4995525;28;20092;-54
2022/05/16 13:08:50;;;;;;;1.65;1.30;;;;;;;26.86;52.34;100637.72;4980406;28;19980;-54
2022/05/16 13:11:38;;;;;;;1.92;1.55;;;;;;;26.90;52.19;100643.53;4995107;28;20144;-53
2022/05/16 13:14:29;;;;;;;1.95;1.58;;;;;;;26.96;52.13;100626.97;4980659;28;20100;-56
2022/05/16 13:17:28;;;;;;;1.85;1.48;;;;;;;27.03;51.82;100625.78;4980831;28;20505;-50
2022/05/16 13:20:17;;;;;;;2.03;1.70;;;;;;;27.11;51.73;100630.06;4995135;28;20137;-56
2022/05/16 13:23:01;;;;;;;1.60;1.50;;;;;;;27.17;51.44;100626.34;4980170;28;20061;-57
2022/05/16 13:31:55;;;;;;;3.13;1.65;;;;;;;27.21;51.07;100625.63;4983808;28;20057;-51
2022/05/16 13:34:51;;;;;;;2.05;1.40;;;;;;;27.22;51.12;100621.81;4994775;28;20045;-59
2022/05/16 13:37:49;;;;;;;1.48;1.38;;;;;;;27.28;51.11;100615.38;4994634;28;20127;-60
2022/05/16 13:40:42;;;;;;;2.28;1.85;;;;;;;27.34;50.61;100614.41;4994567;28;20621;-60
2022/05/16 13:43:27;;;;;;;3.33;1.63;;;;;;;27.38;50.65;100601.88;4979777;28;20101;-60
2022/05/16 13:46:12;;;;;;;1.55;1.33;;;;;;;27.41;50.36;100623.28;4994432;28;20100;-60
2022/05/16 13:49:04;;;;;;;2.58;1.50;;;;;;;27.45;50.14;100620.91;4994700;28;20053;-60
2022/05/16 13:51:51;;;;;;;2.03;1.40;;;;;;;27.46;50.05;100617.94;4994667;28;20169;-60
2022/05/16 13:54:35;;;;;;;2.38;1.55;;;;;;;27.49;49.99;100622.91;4994390;28;20045;-60
2022/05/16 13:57:26;;;;;;;2.35;1.65;;;;;;;27.53;50.15;100623.25;4979856;28;20137;-60